ADDS METAR Data INFO
IDs: Format: Raw Decoded Include TAF

Data at: 1750 UTC 15 Dec 2017

KOXB 151733Z AUTO 08007KT 10SM BKN028 OVC070 06/00 A2993 RMK AO2 T00560000 $
KOXB 151653Z AUTO 09008KT 10SM OVC070 05/M01 A2997 RMK AO2 SLP149 T00501011 $
KOXB 151553Z AUTO 08006KT 10SM OVC070 04/M02 A3003 RMK AO2 SLP168 T00391017 $
KOXB 151453Z AUTO 07008KT 10SM OVC070 03/M02 A3006 RMK AO2 SLP179 T00331022 58016 $
KOXB 151353Z AUTO 06005KT 10SM OVC080 03/M03 A3008 RMK AO2 SLP184 T00281033 $
KOXB 151253Z AUTO 36004KT 10SM OVC080 M01/M05 A3010 RMK AO2 SLP194 T10061050 $
KOXB 151153Z AUTO 36005KT 10SM OVC080 M01/M07 A3011 RMK AO2 SLP194 T10111067 11011 21039 58005 $
KOXB 151053Z AUTO 35005KT 10SM OVC080 M02/M07 A3011 RMK AO2 SLP197 T10171072 $
KOXB 150953Z AUTO 34005KT 10SM BKN080 M02/M08 A3012 RMK AO2 SLP198 T10221078 $
KOXB 150853Z AUTO 35005KT 10SM CLR M02/M09 A3012 RMK AO2 SLP199 T10221089 50002 $
KOXB 150753Z AUTO 34005KT 10SM CLR M03/M09 A3013 RMK AO2 SLP204 T10331089 $
KOXB 150653Z AUTO 34005KT 10SM CLR M02/M08 A3012 RMK AO2 SLP200 T10171083 $
KOXB 150553Z AUTO 32004KT 10SM CLR M02/M08 A3012 RMK AO2 SLP197 T10171078 10011 21017 50010 $
KOXB 150453Z AUTO 30004KT 10SM CLR M01/M07 A3013 RMK AO2 SLP202 T10111072 400781011 $
KOXB 150353Z AUTO 35005KT 10SM CLR M01/M07 A3009 RMK AO2 SLP189 T10061072 $
KOXB 150253Z AUTO 01008KT 10SM CLR 00/M07 A3008 RMK AO2 SLP187 T00001067 51017 $
KOXB 150153Z AUTO 01006KT 10SM CLR 00/M07 A3007 RMK AO2 SLP183 T00001067 $
KOXB 150053Z AUTO 01006KT 10SM CLR 00/M07 A3005 RMK AO2 SLP176 T00001067 $
KOXB 142353Z AUTO 02009KT 10SM CLR 01/M07 A3004 RMK AO2 SLP170 T00111072 10067 20006 51035 $
KOXB 142253Z AUTO 34008KT 10SM CLR 01/M07 A3001 RMK AO2 SLP163 T00061067 $
KOXB 142153Z AUTO 33008KT 10SM CLR 02/M07 A2997 RMK AO2 SLP148 T00171067 $
KOXB 142053Z AUTO 34012G19KT 10SM CLR 04/M07 A2993 RMK AO2 SLP135 T00391067 53038 $
KOXB 141953Z AUTO 35016G22KT 10SM CLR 06/M06 A2988 RMK AO2 SLP117 T00561056 $
KOXB 141853Z AUTO 34018G27KT 10SM CLR 06/M03 A2985 RMK AO2 PK WND 36028/1754 SLP106 T00561033 $
KOXB 141753Z AUTO 35018G27KT 10SM FEW043 06/M02 A2982 RMK AO2 PK WND 35027/1749 SLP097 T00611022 10078 20011 51026
KOXB 141653Z AUTO 32016G31KT 10SM CLR 07/M03 A2980 RMK AO2 PK WND 31032/1634 SLP089 T00721033
KOXB 141553Z AUTO 31012G27KT 10SM CLR 08/M03 A2977 RMK AO2 PK WND 31027/1545 SLP082 T00781028
KOXB 141453Z AUTO 30015G21KT 260V320 10SM FEW080 BKN095 07/M03 A2974 RMK AO2 SLP071 T00721033 53050
KOXB 141353Z AUTO 29010G18KT 10SM BKN075 OVC100 06/M03 A2969 RMK AO2 SLP053 T00561028
KOXB 141253Z AUTO 25008KT 10SM OVC095 04/M03 A2963 RMK AO2 SLP033 T00441028
KOXB 141153Z AUTO 23007KT 10SM CLR 02/M03 A2960 RMK AO2 SLP022 T00171028 10044 20017 53006
KOXB 141053Z AUTO 23009KT 10SM CLR 03/M03 A2957 RMK AO2 SLP014 T00281033
KOXB 140953Z AUTO 23008KT 10SM OVC085 03/M03 A2956 RMK AO2 SLP010 T00331033
KOXB 140853Z AUTO 24012KT 10SM SCT100 03/M04 A2958 RMK AO2 SLP015 T00331044 56024
KOXB 140753Z AUTO 23016KT 10SM FEW085 OVC110 04/M04 A2959 RMK AO2 PK WND 23028/0726 SLP018 T00391039
KOXB 140653Z AUTO 23015G25KT 10SM OVC085 04/M03 A2962 RMK AO2 SLP029 T00441033
KOXB 140553Z AUTO 22012KT 10SM BKN110 02/M02 A2965 RMK AO2 SLP039 60000 T00171017 10017 21011 58037